createdAt,value
2022-10-13T00:02:04.541Z,101387.05
2022-10-13T00:05:45.075Z,101385.66
2022-10-13T00:09:21.385Z,101382.89
2022-10-13T00:13:00.991Z,101384.03
2022-10-13T00:16:38.324Z,101381.40
2022-10-13T00:20:15.469Z,101380.72
2022-10-13T00:23:54.159Z,101378.14
2022-10-13T00:27:30.580Z,101375.67
2022-10-13T00:31:15.515Z,101374.16
2022-10-13T00:34:51.730Z,101373.56
2022-10-13T00:38:29.718Z,101370.77
2022-10-13T00:42:10.650Z,101373.09
2022-10-13T00:45:50.227Z,101372.27
2022-10-13T00:49:26.393Z,101369.65
2022-10-13T00:53:06.135Z,101370.15
2022-10-13T00:56:53.957Z,101366.84
2022-10-13T01:00:31.109Z,101366.65
2022-10-13T01:04:07.756Z,101365.13
2022-10-13T01:07:49.406Z,101357.35
2022-10-13T01:11:32.549Z,101353.66
2022-10-13T01:15:49.000Z,101349.59
2022-10-13T01:19:46.576Z,101346.21
2022-10-13T01:23:34.869Z,101346.36
2022-10-13T01:27:50.574Z,101338.64
2022-10-13T01:32:00.627Z,101343.17
2022-10-13T01:36:20.127Z,101342.91
2022-10-13T01:40:24.005Z,101347.91
2022-10-13T01:44:38.082Z,101343.31
2022-10-13T01:48:20.500Z,101342.32
2022-10-13T01:52:04.880Z,101343.12
2022-10-13T01:56:02.390Z,101340.31
2022-10-13T01:59:41.824Z,101338.19
2022-10-13T02:03:34.738Z,101333.99
2022-10-13T02:07:42.491Z,101332.89
2022-10-13T02:11:22.313Z,101330.98
2022-10-13T02:15:05.345Z,101327.08
2022-10-13T02:18:45.168Z,101323.78
2022-10-13T02:22:30.124Z,101324.96
2022-10-13T02:26:06.821Z,101317.43
2022-10-13T02:29:51.259Z,101314.65
2022-10-13T02:33:29.164Z,101313.73
2022-10-13T02:37:08.286Z,101315.43
2022-10-13T02:40:45.586Z,101317.93
2022-10-13T02:44:25.150Z,101315.95
2022-10-13T02:48:01.550Z,101312.48
2022-10-13T02:51:43.448Z,101314.70
2022-10-13T02:55:30.627Z,101313.96
2022-10-13T02:59:08.349Z,101314.44
2022-10-13T03:02:54.479Z,101318.06
2022-10-13T03:06:32.116Z,101315.80
2022-10-13T03:10:31.261Z,101316.02
2022-10-13T03:14:19.591Z,101316.28
2022-10-13T03:18:16.646Z,101313.20
2022-10-13T03:21:54.171Z,101308.44
2022-10-13T03:25:36.415Z,101307.89
2022-10-13T03:29:18.472Z,101310.12
2022-10-13T03:32:54.625Z,101306.48
2022-10-13T03:36:51.085Z,101305.91
2022-10-13T03:40:29.497Z,101304.78
2022-10-13T03:44:13.439Z,101305.22
2022-10-13T03:47:50.940Z,101308.09
2022-10-13T03:51:46.070Z,101305.77
2022-10-13T03:55:26.210Z,101304.85
2022-10-13T03:59:05.298Z,101300.66
2022-10-13T04:02:43.031Z,101300.29
2022-10-13T04:06:19.878Z,101302.84
2022-10-13T04:10:11.606Z,101306.98
2022-10-13T04:13:50.136Z,101312.31
2022-10-13T04:17:35.805Z,101313.67
2022-10-13T04:21:16.546Z,101313.17
2022-10-13T04:24:59.484Z,101317.55
2022-10-13T04:28:47.735Z,101318.73
2022-10-13T04:32:24.270Z,101318.66
2022-10-13T04:36:08.135Z,101317.86
2022-10-13T04:39:44.332Z,101321.69
2022-10-13T04:43:22.235Z,101320.48
2022-10-13T04:47:01.716Z,101323.02
2022-10-13T04:50:37.829Z,101325.90
2022-10-13T04:54:15.523Z,101326.39
2022-10-13T04:57:52.928Z,101325.78
2022-10-13T05:01:31.025Z,101325.16
2022-10-13T05:05:09.616Z,101323.94
2022-10-13T05:08:48.515Z,101318.14
2022-10-13T05:12:25.690Z,101319.15
2022-10-13T05:16:08.620Z,101317.42
2022-10-13T05:19:45.578Z,101317.46
2022-10-13T05:23:22.298Z,101316.59
2022-10-13T05:26:59.952Z,101317.30
2022-10-13T05:30:37.646Z,101317.29
2022-10-13T05:34:15.488Z,101313.04
2022-10-13T05:37:53.158Z,101315.05
2022-10-13T05:41:31.570Z,101318.86
2022-10-13T05:45:10.915Z,101319.89
2022-10-13T05:48:46.895Z,101318.85
2022-10-13T05:52:25.650Z,101322.81
2022-10-13T05:56:08.984Z,101323.23
2022-10-13T05:59:51.178Z,101324.79
2022-10-13T06:03:48.083Z,101327.05
2022-10-13T06:07:05.354Z,101329.55
2022-10-13T06:10:43.842Z,101328.64
2022-10-13T06:14:21.170Z,101332.22
2022-10-13T06:17:58.037Z,101336.25
2022-10-13T06:21:35.780Z,101330.47
2022-10-13T06:25:13.170Z,101337.00
2022-10-13T06:28:54.462Z,101337.69
2022-10-13T06:32:34.131Z,101342.69
2022-10-13T06:36:11.984Z,101341.47
2022-10-13T06:39:49.205Z,101340.23
2022-10-13T06:43:34.362Z,101337.00
2022-10-13T06:47:16.394Z,101336.58
2022-10-13T06:50:54.235Z,101337.80
2022-10-13T06:54:34.714Z,101333.84
2022-10-13T06:58:11.934Z,101331.98
2022-10-13T07:01:52.013Z,101329.30
2022-10-13T07:05:28.418Z,101331.58
2022-10-13T07:09:07.836Z,101337.31
2022-10-13T07:12:43.866Z,101334.30
2022-10-13T07:16:21.940Z,101336.23
2022-10-13T07:20:01.315Z,101333.27
2022-10-13T07:23:40.521Z,101334.67
2022-10-13T07:27:17.878Z,101330.87
2022-10-13T07:30:55.156Z,101331.56
2022-10-13T07:34:33.288Z,101328.59
2022-10-13T07:38:11.813Z,101323.88
2022-10-13T07:41:51.045Z,101319.35
2022-10-13T07:45:27.870Z,101319.08
2022-10-13T07:49:05.485Z,101312.86
2022-10-13T07:52:43.340Z,101308.70
2022-10-13T07:56:20.955Z,101302.20
2022-10-13T07:59:59.047Z,101297.41
2022-10-13T08:07:17.057Z,101298.27
2022-10-13T08:14:34.775Z,101297.41
2022-10-13T08:18:14.528Z,101294.35
2022-10-13T08:21:59.156Z,101296.52
2022-10-13T08:25:41.012Z,101290.58
2022-10-13T08:29:25.240Z,101291.42
2022-10-13T08:33:01.433Z,101287.52
2022-10-13T08:36:40.057Z,101289.48
2022-10-13T08:40:21.090Z,101290.07
2022-10-13T08:48:23.430Z,101288.02
2022-10-13T08:52:05.705Z,101285.98
2022-10-13T08:55:47.504Z,101282.86
2022-10-13T08:59:24.834Z,101281.21
2022-10-13T09:03:20.166Z,101280.25
2022-10-13T09:07:05.448Z,101278.38
2022-10-13T09:10:51.227Z,101273.64
2022-10-13T09:14:33.582Z,101275.06
2022-10-13T09:18:14.176Z,101271.05
2022-10-13T09:21:54.369Z,101276.45
2022-10-13T09:25:42.750Z,101269.77
2022-10-13T09:29:25.059Z,101269.33
2022-10-13T09:33:13.706Z,101265.69
2022-10-13T09:36:57.267Z,101265.83
2022-10-13T09:40:34.470Z,101270.44
2022-10-13T09:44:32.473Z,101266.66
2022-10-13T09:48:19.452Z,101261.90
2022-10-13T09:52:05.010Z,101260.89
2022-10-13T09:55:41.075Z,101259.48
2022-10-13T09:59:35.981Z,101250.83
2022-10-13T10:03:32.912Z,101245.96
2022-10-13T10:07:22.005Z,101235.80
2022-10-13T10:11:02.777Z,101226.52
2022-10-13T10:14:39.380Z,101225.64
2022-10-13T10:18:48.773Z,101221.61
2022-10-13T10:22:33.877Z,101214.45
2022-10-13T10:26:34.474Z,101213.19
2022-10-13T10:30:17.275Z,101211.82
2022-10-13T10:34:15.387Z,101202.81
2022-10-13T10:38:04.436Z,101193.36
2022-10-13T10:42:41.885Z,101191.45
2022-10-13T10:46:22.805Z,101181.95
2022-10-13T10:50:06.363Z,101180.34
2022-10-13T10:54:21.724Z,101177.83
2022-10-13T10:58:09.956Z,101178.39
2022-10-13T11:02:07.568Z,101178.09
2022-10-13T11:06:26.475Z,101163.02
2022-10-13T11:10:17.888Z,101165.39
2022-10-13T11:14:05.735Z,101157.48
2022-10-13T11:17:42.516Z,101154.95
2022-10-13T11:21:21.991Z,101146.88
2022-10-13T11:25:01.244Z,101146.56
2022-10-13T11:28:40.367Z,101141.19
2022-10-13T11:32:26.950Z,101138.23
2022-10-13T11:36:33.053Z,101129.23
2022-10-13T11:40:29.246Z,101122.42
2022-10-13T11:44:46.274Z,101122.85
2022-10-13T11:48:28.719Z,101117.12
2022-10-13T11:52:21.427Z,101108.57
2022-10-13T11:56:18.536Z,101103.08
2022-10-13T11:59:57.459Z,101096.58
2022-10-13T12:03:36.676Z,101100.80
2022-10-13T12:07:16.617Z,101095.63
2022-10-13T12:10:57.579Z,101095.02
2022-10-13T12:14:43.409Z,101089.06
2022-10-13T12:18:25.389Z,101081.55
2022-10-13T12:22:02.389Z,101077.14
2022-10-13T12:25:39.264Z,101068.15
2022-10-13T12:29:19.891Z,101063.20
2022-10-13T12:32:59.274Z,101058.84
2022-10-13T12:36:40.870Z,101064.91
2022-10-13T12:40:19.403Z,101057.42
2022-10-13T12:43:56.301Z,101051.69
2022-10-13T12:47:48.547Z,101053.67
2022-10-13T12:51:28.579Z,101052.52
2022-10-13T12:55:23.535Z,101051.94
2022-10-13T12:58:43.796Z,101047.64
2022-10-13T13:02:33.170Z,101046.02
2022-10-13T13:06:15.468Z,101039.39
2022-10-13T13:10:04.494Z,101035.55
2022-10-13T13:13:40.570Z,101038.66
2022-10-13T13:17:38.448Z,101041.09
2022-10-13T13:21:20.074Z,101039.10
2022-10-13T13:24:57.423Z,101036.16
2022-10-13T13:28:34.086Z,101036.48
2022-10-13T13:32:19.991Z,101037.52
2022-10-13T13:35:56.689Z,101032.12
2022-10-13T13:39:34.582Z,101023.95
2022-10-13T13:43:12.982Z,101024.64
2022-10-13T13:46:49.374Z,101025.11
2022-10-13T13:50:33.404Z,101028.20
2022-10-13T13:54:09.707Z,101021.43
2022-10-13T13:57:47.222Z,101025.20
2022-10-13T14:01:25.949Z,101018.72
2022-10-13T14:05:02.793Z,101013.21
2022-10-13T14:08:42.936Z,101007.66
2022-10-13T14:12:19.791Z,101013.46
2022-10-13T14:16:00.030Z,101012.73
2022-10-13T14:19:36.702Z,101003.39
2022-10-13T14:23:14.441Z,101001.55
2022-10-13T14:26:51.982Z,101005.36
2022-10-13T14:30:29.285Z,100995.02
2022-10-13T14:34:08.303Z,100991.69
2022-10-13T14:37:45.266Z,100993.19
2022-10-13T14:41:23.414Z,100989.44
2022-10-13T14:45:00.410Z,100983.96
2022-10-13T14:48:38.570Z,100981.37
2022-10-13T14:52:15.187Z,100978.20
2022-10-13T14:55:54.524Z,100976.76
2022-10-13T14:59:34.275Z,100973.11
2022-10-13T15:03:11.740Z,100964.98
2022-10-13T15:06:49.376Z,100963.85
2022-10-13T15:10:27.184Z,100962.48
2022-10-13T15:14:04.904Z,100961.34
2022-10-13T15:17:42.494Z,100967.02
2022-10-13T15:21:20.262Z,100963.23
2022-10-13T15:24:57.692Z,100955.39
2022-10-13T15:28:38.417Z,100951.82
2022-10-13T15:32:18.620Z,100942.59
2022-10-13T15:35:55.605Z,100942.73
2022-10-13T15:39:34.181Z,100943.86
2022-10-13T15:43:10.777Z,100935.77
2022-10-13T15:47:06.707Z,100932.15
2022-10-13T15:50:45.403Z,100935.10
2022-10-13T15:54:22.696Z,100933.94
2022-10-13T15:57:59.646Z,100930.27
2022-10-13T16:01:38.397Z,100925.56
2022-10-13T16:05:16.041Z,100923.36
2022-10-13T16:08:53.780Z,100924.81
2022-10-13T16:12:31.294Z,100923.37
2022-10-13T16:16:09.494Z,100921.37
2022-10-13T16:19:45.658Z,100926.54
2022-10-13T16:23:24.765Z,100932.21
2022-10-13T16:27:02.105Z,100934.11
2022-10-13T16:30:38.895Z,100935.42
2022-10-13T16:34:16.334Z,100935.15
2022-10-13T16:37:54.070Z,100930.02
2022-10-13T16:41:31.782Z,100925.34
2022-10-13T16:45:10.930Z,100917.45
2022-10-13T16:48:48.699Z,100918.61
2022-10-13T16:52:24.988Z,100924.20
2022-10-13T16:56:05.114Z,100928.10
2022-10-13T16:59:41.419Z,100926.57
2022-10-13T17:03:19.121Z,100919.20
2022-10-13T17:06:57.028Z,100913.57
2022-10-13T17:10:35.034Z,100910.35
2022-10-13T17:14:12.346Z,100908.31
2022-10-13T17:17:50.795Z,100903.79
2022-10-13T17:21:27.647Z,100903.92
2022-10-13T17:25:06.680Z,100906.29
2022-10-13T17:28:43.410Z,100909.64
2022-10-13T17:32:37.825Z,100905.36
2022-10-13T17:36:26.097Z,100902.41
2022-10-13T17:40:03.124Z,100901.45
2022-10-13T17:43:46.602Z,100897.11
2022-10-13T17:47:23.028Z,100894.05
2022-10-13T17:51:09.296Z,100893.71
2022-10-13T17:54:45.683Z,100889.56
2022-10-13T17:58:22.846Z,100891.16
2022-10-13T18:02:00.699Z,100890.20
2022-10-13T18:05:42.367Z,100891.08
2022-10-13T18:09:24.428Z,100892.66
2022-10-13T18:13:00.440Z,100898.26
2022-10-13T18:16:39.138Z,100889.55
2022-10-13T18:20:15.939Z,100889.01
2022-10-13T18:23:59.579Z,100887.09
2022-10-13T18:27:36.781Z,100882.05
2022-10-13T18:31:27.698Z,100886.13
2022-10-13T18:35:04.225Z,100886.50
2022-10-13T18:38:41.779Z,100883.86
2022-10-13T18:42:19.479Z,100882.59
2022-10-13T18:46:14.678Z,100882.55
2022-10-13T18:49:50.855Z,100881.39
2022-10-13T18:53:29.174Z,100882.15
2022-10-13T18:57:06.058Z,100877.59
2022-10-13T19:00:43.830Z,100874.20
2022-10-13T19:04:23.400Z,100871.79
2022-10-13T19:08:00.744Z,100868.60
2022-10-13T19:11:38.062Z,100863.84
2022-10-13T19:15:15.403Z,100859.16
2022-10-13T19:18:53.440Z,100859.70
2022-10-13T19:22:31.312Z,100851.14
2022-10-13T19:26:14.651Z,100846.41
2022-10-13T19:29:55.060Z,100841.55
2022-10-13T19:33:31.832Z,100840.32
2022-10-13T19:37:09.646Z,100842.88
2022-10-13T19:40:50.015Z,100842.65
2022-10-13T19:44:27.997Z,100839.79
2022-10-13T19:48:05.374Z,100839.15
2022-10-13T19:51:43.438Z,100835.28
2022-10-13T19:55:21.197Z,100837.73
2022-10-13T19:59:00.105Z,100839.23
2022-10-13T20:02:36.287Z,100835.79
2022-10-13T20:06:15.532Z,100837.94
2022-10-13T20:09:51.680Z,100843.93
2022-10-13T20:13:30.316Z,100848.56
2022-10-13T20:17:07.214Z,100853.02
2022-10-13T20:20:45.812Z,100848.89
2022-10-13T20:24:24.653Z,100853.77
2022-10-13T20:28:00.602Z,100855.91
2022-10-13T20:31:38.238Z,100853.20
2022-10-13T20:35:16.125Z,100851.40
2022-10-13T20:38:54.968Z,100846.19
2022-10-13T20:42:32.504Z,100842.45
2022-10-13T20:46:10.675Z,100841.96
2022-10-13T20:49:47.973Z,100838.36
2022-10-13T20:53:25.358Z,100836.95
2022-10-13T20:57:03.270Z,100832.48
2022-10-13T21:00:43.985Z,100828.90
2022-10-13T21:04:20.126Z,100826.06
2022-10-13T21:07:57.924Z,100825.54
2022-10-13T21:11:36.438Z,100822.69
2022-10-13T21:15:13.009Z,100822.89
2022-10-13T21:18:52.054Z,100821.48
2022-10-13T21:22:30.669Z,100822.14
2022-10-13T21:26:09.084Z,100820.17
2022-10-13T21:29:46.792Z,100819.91
2022-10-13T21:33:23.775Z,100821.45
2022-10-13T21:37:01.593Z,100815.90
2022-10-13T21:40:38.775Z,100810.90
2022-10-13T21:44:16.592Z,100809.95
2022-10-13T21:47:55.000Z,100810.02
2022-10-13T21:51:37.808Z,100809.27
2022-10-13T21:55:17.065Z,100809.11
2022-10-13T21:58:56.610Z,100808.95
2022-10-13T22:02:33.391Z,100806.13
2022-10-13T22:06:18.525Z,100800.54
2022-10-13T22:09:56.375Z,100797.75
2022-10-13T22:13:33.664Z,100796.33
2022-10-13T22:17:10.655Z,100793.41
2022-10-13T22:20:48.460Z,100789.06
2022-10-13T22:24:26.365Z,100790.90
2022-10-13T22:28:03.965Z,100788.67
2022-10-13T22:31:43.514Z,100782.61
2022-10-13T22:35:19.989Z,100785.53
2022-10-13T22:39:02.966Z,100785.10
2022-10-13T22:42:39.285Z,100787.77
2022-10-13T22:46:19.813Z,100785.08
2022-10-13T22:49:56.125Z,100787.59
2022-10-13T22:53:35.055Z,100789.05
2022-10-13T22:57:12.898Z,100783.48
2022-10-13T23:00:50.373Z,100786.09
2022-10-13T23:04:28.470Z,100783.02
2022-10-13T23:08:06.278Z,100780.19
2022-10-13T23:11:44.606Z,100782.30
2022-10-13T23:15:21.274Z,100785.80
2022-10-13T23:18:58.886Z,100779.60
2022-10-13T23:22:37.194Z,100778.95
2022-10-13T23:26:18.082Z,100777.05
2022-10-13T23:29:57.615Z,100775.11
2022-10-13T23:33:35.319Z,100772.15
2022-10-13T23:37:12.834Z,100768.29
2022-10-13T23:40:50.945Z,100766.31
2022-10-13T23:44:30.376Z,100768.88
2022-10-13T23:48:07.062Z,100766.16
2022-10-13T23:51:49.582Z,100766.14
2022-10-13T23:55:39.259Z,100762.94
2022-10-13T23:59:15.434Z,100759.77
